Time;durP1;ratioP1;P1;durP2;ratioP2;P2;SDS_P1;SDS_P2;PMS_P1;PMS_P2;Temp;Humidity;BMP_temperature;BMP_pressure;BME280_temperature;BME280_humidity;BME280_pressure;Samples;Min_cycle;Max_cycle;Signal;HPM_P1;HPM_P2
2022/07/08 00:00:40;;;;;;;2.37;1.13;;;;;;;;;;5040164;28;20199;-66
2022/07/08 00:03:13;;;;;;;1.73;1.10;;;;;;;;;;5024324;28;20187;-66
2022/07/08 00:05:57;;;;;;;3.30;1.50;;;;;;;;;;5018629;28;20234;-66
2022/07/08 00:08:30;;;;;;;3.10;1.10;;;;;;;;;;5036335;28;20202;-66
2022/07/08 00:11:16;;;;;;;3.70;1.37;;;;;;;;;;5015251;28;20211;-66
2022/07/08 00:13:46;;;;;;;3.43;1.07;;;;;;;;;;5037243;28;20612;-66
2022/07/08 00:16:17;;;;;;;4.13;1.23;;;;;;;;;;5010113;28;20215;-66
2022/07/08 00:18:50;;;;;;;3.07;1.30;;;;;;;;;;5014122;28;20198;-66
2022/07/08 00:21:20;;;;;;;2.27;1.30;;;;;;;;;;5023561;28;20187;-66
2022/07/08 00:23:52;;;;;;;2.80;1.30;;;;;;;;;;5031495;28;20647;-67
2022/07/08 00:26:21;;;;;;;2.40;1.00;;;;;;;;;;5038530;28;20194;-66
2022/07/08 00:28:54;;;;;;;3.87;1.20;;;;;;;;;;5012909;28;20221;-66
2022/07/08 00:31:26;;;;;;;3.03;1.20;;;;;;;;;;5035193;28;20202;-66
2022/07/08 00:33:54;;;;;;;1.93;1.17;;;;;;;;;;5038046;28;20226;-67
2022/07/08 00:36:27;;;;;;;2.37;1.00;;;;;;;;;;5037488;28;20289;-66
2022/07/08 00:38:57;;;;;;;3.33;1.20;;;;;;;;;;5027849;28;20243;-66
2022/07/08 00:41:30;;;;;;;3.60;1.50;;;;;;;;;;5030896;28;20202;-66
2022/07/08 00:44:07;;;;;;;4.67;1.43;;;;;;;;;;5025867;28;20226;-66
2022/07/08 00:46:38;;;;;;;1.83;1.03;;;;;;;;;;5016859;28;20305;-67
2022/07/08 00:49:09;;;;;;;3.87;1.30;;;;;;;;;;5037497;28;20199;-67
2022/07/08 00:51:40;;;;;;;2.80;1.10;;;;;;;;;;5030088;28;20191;-66
2022/07/08 00:54:14;;;;;;;3.00;1.20;;;;;;;;;;5035703;28;20191;-66
2022/07/08 00:56:44;;;;;;;2.87;1.10;;;;;;;;;;5022638;28;20827;-66
2022/07/08 00:59:14;;;;;;;2.77;1.20;;;;;;;;;;5003927;28;20206;-66
2022/07/08 01:01:47;;;;;;;2.20;1.10;;;;;;;;;;4993477;28;20195;-67
2022/07/08 01:04:20;;;;;;;3.50;1.17;;;;;;;;;;5026340;28;20758;-67
2022/07/08 01:06:49;;;;;;;4.17;1.27;;;;;;;;;;5037282;28;20229;-66
2022/07/08 01:09:26;;;;;;;2.83;1.40;;;;;;;;;;5023578;28;20282;-66
2022/07/08 01:11:57;;;;;;;1.47;0.93;;;;;;;;;;5035936;28;20207;-66
2022/07/08 01:14:33;;;;;;;3.30;1.43;;;;;;;;;;5036933;28;20688;-66
2022/07/08 01:17:15;;;;;;;5.83;1.40;;;;;;;;;;5026629;28;20346;-66
2022/07/08 01:19:47;;;;;;;2.67;1.40;;;;;;;;;;5030437;28;20199;-66
2022/07/08 01:22:16;;;;;;;3.83;1.20;;;;;;;;;;5027177;28;20298;-67
2022/07/08 01:24:48;;;;;;;2.57;1.30;;;;;;;;;;5033366;28;20237;-66
2022/07/08 01:27:19;;;;;;;2.23;1.17;;;;;;;;;;4991103;28;20655;-66
2022/07/08 01:29:54;;;;;;;2.80;1.17;;;;;;;;;;5017163;28;20561;-66
2022/07/08 01:32:24;;;;;;;3.83;1.10;;;;;;;;;;5030088;28;20202;-67
2022/07/08 01:34:56;;;;;;;2.87;1.50;;;;;;;;;;5012322;28;20230;-66
2022/07/08 01:37:24;;;;;;;2.63;1.10;;;;;;;;;;5027195;28;20668;-66
2022/07/08 01:39:54;;;;;;;2.60;1.27;;;;;;;;;;5023108;28;20787;-66
2022/07/08 01:42:26;;;;;;;2.33;1.20;;;;;;;;;;4999228;28;20206;-66
2022/07/08 01:44:56;;;;;;;1.70;0.90;;;;;;;;;;5026868;28;20220;-66
2022/07/08 01:47:28;;;;;;;3.17;1.37;;;;;;;;;;5042079;28;20357;-66
2022/07/08 01:49:59;;;;;;;3.40;1.70;;;;;;;;;;5020634;28;20199;-66
2022/07/08 01:52:31;;;;;;;2.63;1.30;;;;;;;;;;5028978;28;20206;-67
2022/07/08 01:55:00;;;;;;;2.07;1.10;;;;;;;;;;5014553;28;20202;-67
2022/07/08 01:57:31;;;;;;;2.60;1.30;;;;;;;;;;5019588;28;20250;-67
2022/07/08 02:00:06;;;;;;;3.10;1.03;;;;;;;;;;5045861;28;20586;-66
2022/07/08 02:02:45;;;;;;;3.23;1.20;;;;;;;;;;5047097;28;20256;-66
2022/07/08 02:05:16;;;;;;;2.00;1.10;;;;;;;;;;5024920;28;20261;-66
2022/07/08 02:07:49;;;;;;;2.37;1.13;;;;;;;;;;5024867;28;20684;-66
2022/07/08 02:10:19;;;;;;;2.27;1.27;;;;;;;;;;5009830;28;20219;-67
2022/07/08 02:12:51;;;;;;;2.10;1.33;;;;;;;;;;5029043;28;20628;-67
2022/07/08 02:15:21;;;;;;;3.23;1.40;;;;;;;;;;5032207;28;20187;-67
2022/07/08 02:17:52;;;;;;;2.70;1.10;;;;;;;;;;5043271;28;20198;-66
2022/07/08 02:20:20;;;;;;;2.50;1.03;;;;;;;;;;5043527;28;20190;-66
2022/07/08 02:22:53;;;;;;;3.30;1.37;;;;;;;;;;5025928;28;20203;-66
2022/07/08 02:25:22;;;;;;;2.57;1.17;;;;;;;;;;5030497;28;20195;-67
2022/07/08 02:27:54;;;;;;;2.07;1.07;;;;;;;;;;5006112;28;20205;-67
2022/07/08 02:30:28;;;;;;;2.10;1.07;;;;;;;;;;5026615;28;20694;-66
2022/07/08 02:33:00;;;;;;;3.00;1.20;;;;;;;;;;5038645;28;20214;-66
2022/07/08 02:35:31;;;;;;;2.70;1.27;;;;;;;;;;5037503;28;20642;-66
2022/07/08 02:38:01;;;;;;;3.83;1.20;;;;;;;;;;5036255;28;20583;-66
2022/07/08 02:40:31;;;;;;;4.03;1.27;;;;;;;;;;5044419;28;20190;-66
2022/07/08 02:43:02;;;;;;;3.00;1.20;;;;;;;;;;5028957;28;20194;-66
2022/07/08 02:45:32;;;;;;;3.67;1.20;;;;;;;;;;5023164;28;20211;-66
2022/07/08 02:48:06;;;;;;;3.00;1.13;;;;;;;;;;5045532;28;20202;-66
2022/07/08 02:50:35;;;;;;;2.37;1.00;;;;;;;;;;5031069;28;20228;-66
2022/07/08 02:53:08;;;;;;;2.43;0.97;;;;;;;;;;5009900;28;20187;-66
2022/07/08 02:55:37;;;;;;;2.80;1.10;;;;;;;;;;5043654;28;20474;-66
2022/07/08 02:58:09;;;;;;;4.70;1.40;;;;;;;;;;5043812;28;20218;-67
2022/07/08 03:00:39;;;;;;;4.80;1.37;;;;;;;;;;5030073;28;20249;-67
2022/07/08 03:03:11;;;;;;;2.87;1.40;;;;;;;;;;5025035;28;20273;-66
2022/07/08 03:05:40;;;;;;;2.57;1.03;;;;;;;;;;5020507;28;20201;-67
2022/07/08 03:08:11;;;;;;;3.07;1.10;;;;;;;;;;5031748;28;20207;-66
2022/07/08 03:10:40;;;;;;;3.20;1.10;;;;;;;;;;5021704;28;20686;-67
2022/07/08 03:13:10;;;;;;;3.27;1.10;;;;;;;;;;5045728;28;20202;-66
2022/07/08 03:15:39;;;;;;;2.80;1.20;;;;;;;;;;5035814;28;20191;-66
2022/07/08 03:18:09;;;;;;;2.60;1.03;;;;;;;;;;5022340;28;20587;-66
2022/07/08 03:20:42;;;;;;;2.70;1.67;;;;;;;;;;5019419;28;20214;-66
2022/07/08 03:23:13;;;;;;;2.23;1.20;;;;;;;;;;5038047;28;20234;-66
2022/07/08 03:25:42;;;;;;;4.37;1.40;;;;;;;;;;5036497;28;20200;-66
2022/07/08 03:28:13;;;;;;;3.70;1.43;;;;;;;;;;5026733;28;20519;-67
2022/07/08 03:30:42;;;;;;;3.93;1.70;;;;;;;;;;5032565;28;20202;-67
2022/07/08 03:33:11;;;;;;;3.23;1.63;;;;;;;;;;5000225;28;20232;-66
2022/07/08 03:35:44;;;;;;;3.23;1.50;;;;;;;;;;5032520;28;20190;-66
2022/07/08 03:38:14;;;;;;;4.47;2.17;;;;;;;;;;5028301;28;20199;-66
2022/07/08 03:43:34;;;;;;;5.53;1.60;;;;;;;;;;5036531;28;20191;-67
2022/07/08 03:46:05;;;;;;;4.07;1.83;;;;;;;;;;5037514;28;20211;-67
2022/07/08 03:48:38;;;;;;;3.03;1.70;;;;;;;;;;5036641;28;20208;-65
2022/07/08 03:51:05;;;;;;;3.77;2.00;;;;;;;;;;5024791;28;20532;-64
2022/07/08 03:53:39;;;;;;;5.73;2.10;;;;;;;;;;5023773;28;20517;-65
2022/07/08 03:56:09;;;;;;;4.23;1.83;;;;;;;;;;5034467;28;20224;-66
2022/07/08 03:58:41;;;;;;;3.57;1.80;;;;;;;;;;5024480;28;20594;-66
2022/07/08 04:01:25;;;;;;;4.47;2.10;;;;;;;;;;5024773;28;20222;-66
2022/07/08 04:03:58;;;;;;;2.60;1.70;;;;;;;;;;5034790;28;20931;-66
2022/07/08 04:06:31;;;;;;;3.60;1.50;;;;;;;;;;5027855;28;20576;-66
2022/07/08 04:09:18;;;;;;;4.57;1.97;;;;;;;;;;5025611;28;20217;-66
2022/07/08 04:11:49;;;;;;;4.40;1.90;;;;;;;;;;5022881;28;20226;-65
2022/07/08 04:14:18;;;;;;;4.83;2.10;;;;;;;;;;5026857;28;20565;-65
2022/07/08 04:16:53;;;;;;;4.70;1.97;;;;;;;;;;5016248;28;20689;-65
2022/07/08 04:19:45;;;;;;;4.20;1.93;;;;;;;;;;5032963;28;20250;-65
2022/07/08 04:22:17;;;;;;;3.17;1.60;;;;;;;;;;5020463;28;20211;-64
2022/07/08 04:24:49;;;;;;;3.00;1.60;;;;;;;;;;5031713;28;20559;-65
2022/07/08 04:27:19;;;;;;;4.67;2.07;;;;;;;;;;5024292;28;20211;-64
2022/07/08 04:29:52;;;;;;;5.90;1.90;;;;;;;;;;5035404;28;20199;-64
2022/07/08 04:32:22;;;;;;;4.10;1.80;;;;;;;;;;5030450;28;20203;-65
2022/07/08 04:34:51;;;;;;;4.00;1.70;;;;;;;;;;5036373;28;20198;-66
2022/07/08 04:37:21;;;;;;;4.17;1.60;;;;;;;;;;5025839;28;20218;-67
2022/07/08 04:39:51;;;;;;;2.80;1.57;;;;;;;;;;5035486;28;20241;-67
2022/07/08 04:42:21;;;;;;;3.63;1.80;;;;;;;;;;5044403;28;20202;-66
2022/07/08 04:44:53;;;;;;;3.10;1.50;;;;;;;;;;5023663;28;20191;-66
2022/07/08 04:47:24;;;;;;;4.10;1.70;;;;;;;;;;5028357;28;20692;-65
2022/07/08 04:49:54;;;;;;;2.40;1.43;;;;;;;;;;5030216;28;20194;-64
2022/07/08 04:52:25;;;;;;;3.57;1.80;;;;;;;;;;5039673;28;20203;-64
2022/07/08 04:54:54;;;;;;;4.90;1.40;;;;;;;;;;5012006;28;20204;-65
2022/07/08 04:57:26;;;;;;;2.83;1.20;;;;;;;;;;5025173;28;20225;-64
2022/07/08 04:59:59;;;;;;;2.40;1.40;;;;;;;;;;5030154;28;20253;-65
2022/07/08 05:02:46;;;;;;;3.63;2.10;;;;;;;;;;5031623;28;20227;-65
2022/07/08 05:05:19;;;;;;;4.10;1.70;;;;;;;;;;5027898;28;20636;-65
2022/07/08 05:07:51;;;;;;;4.37;1.60;;;;;;;;;;5013441;28;20523;-66
2022/07/08 05:10:24;;;;;;;3.50;1.57;;;;;;;;;;5027241;28;20211;-66
2022/07/08 05:12:54;;;;;;;3.97;1.70;;;;;;;;;;5028037;28;20208;-66
2022/07/08 05:15:24;;;;;;;4.70;1.70;;;;;;;;;;5017977;28;20206;-66
2022/07/08 05:17:54;;;;;;;2.60;1.40;;;;;;;;;;5045394;28;20233;-66
2022/07/08 05:20:24;;;;;;;2.97;1.63;;;;;;;;;;5030424;28;20206;-64
2022/07/08 05:23:05;;;;;;;3.17;1.53;;;;;;;;;;5018280;28;20246;-64
2022/07/08 05:25:40;;;;;;;2.97;1.60;;;;;;;;;;5018054;28;20603;-64
2022/07/08 05:28:16;;;;;;;4.80;1.80;;;;;;;;;;5039118;28;20568;-64
2022/07/08 05:30:48;;;;;;;4.20;1.50;;;;;;;;;;5040816;28;20201;-65
2022/07/08 05:33:18;;;;;;;4.30;1.60;;;;;;;;;;5031656;28;20187;-66
2022/07/08 05:35:48;;;;;;;4.33;1.67;;;;;;;;;;5033403;28;20188;-66
2022/07/08 05:38:19;;;;;;;5.43;2.10;;;;;;;;;;5014423;28;20211;-66
2022/07/08 05:40:46;;;;;;;4.33;1.60;;;;;;;;;;5028279;28;20593;-67
2022/07/08 05:43:15;;;;;;;6.30;2.10;;;;;;;;;;5038849;28;20209;-68
2022/07/08 05:45:46;;;;;;;4.47;1.90;;;;;;;;;;5041319;28;20211;-67
2022/07/08 05:48:14;;;;;;;4.30;2.07;;;;;;;;;;5041254;28;20217;-66
2022/07/08 05:50:43;;;;;;;3.83;1.80;;;;;;;;;;5041655;28;20221;-66
2022/07/08 05:53:18;;;;;;;4.73;1.80;;;;;;;;;;5032213;28;20194;-66
2022/07/08 05:55:50;;;;;;;5.13;1.83;;;;;;;;;;5018664;28;20199;-67
2022/07/08 05:58:20;;;;;;;6.57;1.90;;;;;;;;;;5035640;28;20270;-66
2022/07/08 06:00:53;;;;;;;6.60;2.37;;;;;;;;;;5033529;28;20203;-65
2022/07/08 06:03:25;;;;;;;8.00;1.63;;;;;;;;;;5027295;28;20530;-65
2022/07/08 06:05:57;;;;;;;6.27;2.37;;;;;;;;;;5031348;28;20207;-66
2022/07/08 06:08:29;;;;;;;7.13;2.10;;;;;;;;;;5012859;28;20203;-65
2022/07/08 06:11:02;;;;;;;3.70;1.53;;;;;;;;;;5021332;28;20207;-64
2022/07/08 06:13:31;;;;;;;6.03;2.40;;;;;;;;;;5010092;28;20199;-64
2022/07/08 06:16:03;;;;;;;4.83;1.87;;;;;;;;;;5030865;28;20210;-64
2022/07/08 06:18:37;;;;;;;6.67;2.50;;;;;;;;;;5033962;28;20286;-64
2022/07/08 06:21:10;;;;;;;5.27;2.20;;;;;;;;;;5038252;28;20187;-65
2022/07/08 06:23:41;;;;;;;5.13;2.10;;;;;;;;;;5039305;28;20194;-65
2022/07/08 06:26:11;;;;;;;4.97;2.10;;;;;;;;;;5019298;28;20202;-65
2022/07/08 06:28:42;;;;;;;6.17;2.30;;;;;;;;;;5036826;28;20198;-65
2022/07/08 06:31:13;;;;;;;5.43;2.10;;;;;;;;;;5026374;28;20527;-65
2022/07/08 06:33:42;;;;;;;8.57;2.37;;;;;;;;;;5014626;28;20733;-67
2022/07/08 06:36:15;;;;;;;11.47;2.83;;;;;;;;;;5030896;28;20215;-67
2022/07/08 06:38:47;;;;;;;5.47;2.20;;;;;;;;;;5039680;28;20702;-66
2022/07/08 06:41:17;;;;;;;6.00;2.20;;;;;;;;;;5027495;28;20227;-65
2022/07/08 06:43:51;;;;;;;9.03;2.83;;;;;;;;;;4994500;28;20644;-65
2022/07/08 06:46:20;;;;;;;3.80;2.03;;;;;;;;;;5023458;28;20694;-71
2022/07/08 06:48:53;;;;;;;6.10;1.90;;;;;;;;;;5011448;28;20629;-72
2022/07/08 06:51:22;;;;;;;7.20;2.40;;;;;;;;;;5010164;28;20215;-71
2022/07/08 06:56:45;;;;;;;9.43;2.33;;;;;;;;;;5020896;28;20199;-68
2022/07/08 06:59:17;;;;;;;4.73;1.93;;;;;;;;;;5012809;28;20204;-69
2022/07/08 07:01:49;;;;;;;6.53;2.57;;;;;;;;;;5029272;28;20205;-70
2022/07/08 07:04:20;;;;;;;6.57;2.40;;;;;;;;;;5029193;28;20279;-67
2022/07/08 07:06:52;;;;;;;5.30;2.20;;;;;;;;;;5037390;28;20277;-68
2022/07/08 07:09:20;;;;;;;8.90;2.33;;;;;;;;;;5028839;28;20577;-70
2022/07/08 07:11:53;;;;;;;6.13;2.43;;;;;;;;;;5031225;28;20272;-69
2022/07/08 07:14:23;;;;;;;5.93;2.00;;;;;;;;;;5041469;28;20194;-72
2022/07/08 07:17:00;;;;;;;5.47;2.07;;;;;;;;;;5027358;28;20222;-68
2022/07/08 07:19:31;;;;;;;6.27;2.40;;;;;;;;;;5017054;28;20202;-68
2022/07/08 07:22:05;;;;;;;5.97;2.60;;;;;;;;;;5033507;28;20678;-66
2022/07/08 07:24:36;;;;;;;4.77;1.63;;;;;;;;;;5042105;28;20279;-66
2022/07/08 07:27:22;;;;;;;5.43;2.20;;;;;;;;;;5025179;28;20237;-68
2022/07/08 07:29:52;;;;;;;6.90;1.93;;;;;;;;;;5027669;28;20214;-67
2022/07/08 07:32:22;;;;;;;3.87;1.90;;;;;;;;;;5036128;28;20565;-66
2022/07/08 07:34:56;;;;;;;5.50;1.97;;;;;;;;;;5030227;28;20237;-68
2022/07/08 07:37:27;;;;;;;9.37;2.10;;;;;;;;;;5032209;28;20215;-69
2022/07/08 07:39:59;;;;;;;4.70;1.70;;;;;;;;;;5038099;28;20230;-68
2022/07/08 07:42:32;;;;;;;4.87;1.97;;;;;;;;;;5010186;28;20199;-67
2022/07/08 07:45:04;;;;;;;4.07;1.77;;;;;;;;;;5017672;28;20202;-66
2022/07/08 07:47:32;;;;;;;4.13;1.83;;;;;;;;;;5021482;28;20214;-67
2022/07/08 07:50:04;;;;;;;2.67;1.43;;;;;;;;;;5031366;28;20210;-69
2022/07/08 07:52:37;;;;;;;2.97;1.47;;;;;;;;;;5029665;28;20225;-68
2022/07/08 07:55:10;;;;;;;4.70;1.90;;;;;;;;;;5028544;28;20196;-68
2022/07/08 07:57:45;;;;;;;6.90;2.50;;;;;;;;;;5009943;28;20253;-69
2022/07/08 08:00:17;;;;;;;3.80;1.93;;;;;;;;;;5035580;28;20198;-69
2022/07/08 08:02:57;;;;;;;6.43;2.17;;;;;;;;;;4995734;28;20203;-71
2022/07/08 08:05:31;;;;;;;6.00;1.47;;;;;;;;;;5038144;28;20628;-69
2022/07/08 08:08:03;;;;;;;7.87;2.10;;;;;;;;;;5032341;28;20301;-71
2022/07/08 08:10:33;;;;;;;5.50;1.80;;;;;;;;;;5024206;28;20215;-72
2022/07/08 08:13:03;;;;;;;4.60;1.63;;;;;;;;;;5027690;28;20625;-71
2022/07/08 08:15:33;;;;;;;3.93;1.73;;;;;;;;;;5026200;28;20249;-69
2022/07/08 08:18:03;;;;;;;4.07;1.37;;;;;;;;;;5011184;28;20596;-72
2022/07/08 08:20:34;;;;;;;6.60;1.67;;;;;;;;;;5037929;28;20191;-72
2022/07/08 08:23:05;;;;;;;4.07;1.50;;;;;;;;;;5026534;28;20282;-71
2022/07/08 08:25:51;;;;;;;4.43;1.63;;;;;;;;;;5004227;28;20264;-74
2022/07/08 08:28:24;;;;;;;7.40;1.83;;;;;;;;;;5033445;28;20200;-70
2022/07/08 08:30:59;;;;;;;5.07;1.83;;;;;;;;;;5030579;28;20194;-71
2022/07/08 08:33:28;;;;;;;5.07;1.40;;;;;;;;;;5029115;28;20199;-71
2022/07/08 08:36:00;;;;;;;4.90;1.80;;;;;;;;;;5019191;28;20306;-70
2022/07/08 08:38:30;;;;;;;5.17;1.83;;;;;;;;;;5007557;28;20226;-71
2022/07/08 08:41:01;;;;;;;5.33;1.40;;;;;;;;;;5003849;28;20199;-71
2022/07/08 08:43:31;;;;;;;3.80;1.30;;;;;;;;;;5039610;28;20193;-70
2022/07/08 08:46:04;;;;;;;4.40;1.40;;;;;;;;;;5043395;28;20277;-70
2022/07/08 08:48:37;;;;;;;5.83;1.73;;;;;;;;;;5014294;28;20261;-70
2022/07/08 08:51:11;;;;;;;4.47;1.50;;;;;;;;;;5027596;28;20230;-72
2022/07/08 08:54:06;;;;;;;6.60;1.90;;;;;;;;;;5041799;28;20208;-69
2022/07/08 08:56:36;;;;;;;6.50;1.73;;;;;;;;;;5047027;28;20194;-74
2022/07/08 08:59:13;;;;;;;8.30;2.33;;;;;;;;;;5023245;28;20598;-69
2022/07/08 09:01:42;;;;;;;5.77;1.90;;;;;;;;;;5021807;28;20587;-69
2022/07/08 09:04:14;;;;;;;6.53;1.53;;;;;;;;;;5019013;28;20218;-68
2022/07/08 09:06:59;;;;;;;3.87;1.60;;;;;;;;;;5008597;28;20280;-70
2022/07/08 09:09:39;;;;;;;4.43;1.70;;;;;;;;;;5039460;28;20560;-69
2022/07/08 09:12:22;;;;;;;4.83;1.93;;;;;;;;;;5038902;28;20207;-65
2022/07/08 09:14:54;;;;;;;6.23;1.83;;;;;;;;;;5046039;28;20188;-65
2022/07/08 09:17:33;;;;;;;4.87;2.07;;;;;;;;;;5047376;28;20222;-65
2022/07/08 09:20:03;;;;;;;5.70;1.90;;;;;;;;;;5035765;28;20222;-65
2022/07/08 09:22:33;;;;;;;9.93;2.67;;;;;;;;;;5026630;28;20215;-65
2022/07/08 09:25:15;;;;;;;7.67;1.97;;;;;;;;;;5027512;28;20214;-65
2022/07/08 09:27:46;;;;;;;2.63;1.33;;;;;;;;;;5039294;28;20190;-63
2022/07/08 09:30:18;;;;;;;4.23;1.47;;;;;;;;;;5016006;28;20238;-63
2022/07/08 09:33:04;;;;;;;5.50;1.70;;;;;;;;;;5031780;28;20206;-63
2022/07/08 09:35:44;;;;;;;5.40;1.60;;;;;;;;;;5013287;28;20243;-64
2022/07/08 09:38:13;;;;;;;3.83;1.30;;;;;;;;;;5034878;28;20310;-64
2022/07/08 09:40:58;;;;;;;3.50;1.30;;;;;;;;;;5039320;28;20178;-64
2022/07/08 09:43:30;;;;;;;7.53;1.63;;;;;;;;;;5039537;28;20624;-64
2022/07/08 09:46:04;;;;;;;3.63;1.60;;;;;;;;;;5039886;28;20759;-64
2022/07/08 09:48:35;;;;;;;4.17;1.70;;;;;;;;;;5047491;28;20293;-64
2022/07/08 09:51:09;;;;;;;4.67;1.33;;;;;;;;;;5039420;28;20198;-64
2022/07/08 09:53:43;;;;;;;1.90;1.13;;;;;;;;;;5045394;28;20211;-64
2022/07/08 09:56:13;;;;;;;2.83;1.33;;;;;;;;;;5043333;28;20200;-64
2022/07/08 09:58:50;;;;;;;2.57;1.30;;;;;;;;;;5023145;28;20717;-64
2022/07/08 10:01:20;;;;;;;4.07;1.13;;;;;;;;;;5035874;28;20225;-64
2022/07/08 10:03:51;;;;;;;3.33;1.33;;;;;;;;;;5047488;28;20396;-64
2022/07/08 10:06:29;;;;;;;2.40;1.00;;;;;;;;;;5016632;28;20187;-65
2022/07/08 10:08:59;;;;;;;3.33;1.30;;;;;;;;;;5033096;28;20837;-64
2022/07/08 10:11:33;;;;;;;3.90;1.37;;;;;;;;;;5005913;28;20211;-64
2022/07/08 10:14:04;;;;;;;3.23;1.10;;;;;;;;;;5029633;28;20199;-64
2022/07/08 10:16:45;;;;;;;2.50;0.93;;;;;;;;;;5030575;28;20207;-64
2022/07/08 10:19:19;;;;;;;3.30;1.37;;;;;;;;;;5009683;28;20238;-64
2022/07/08 10:21:55;;;;;;;3.40;1.20;;;;;;;;;;5028040;28;20221;-65
2022/07/08 10:24:31;;;;;;;2.20;1.00;;;;;;;;;;5025119;28;20238;-65
2022/07/08 10:27:03;;;;;;;2.00;1.03;;;;;;;;;;5021940;28;20242;-64
2022/07/08 10:29:33;;;;;;;1.83;1.07;;;;;;;;;;5043432;28;20214;-64
2022/07/08 10:32:06;;;;;;;2.27;1.10;;;;;;;;;;5020550;28;20203;-65
2022/07/08 10:34:36;;;;;;;2.27;1.00;;;;;;;;;;5024794;28;20223;-65
2022/07/08 10:37:07;;;;;;;3.27;1.27;;;;;;;;;;5040541;28;20207;-64
2022/07/08 10:39:40;;;;;;;2.90;1.27;;;;;;;;;;5017887;28;20241;-64
2022/07/08 10:42:11;;;;;;;3.67;1.10;;;;;;;;;;5030749;28;20206;-64
2022/07/08 10:44:46;;;;;;;2.20;1.33;;;;;;;;;;5017494;28;20195;-64
2022/07/08 10:47:20;;;;;;;1.77;0.97;;;;;;;;;;5032067;28;20986;-64
2022/07/08 10:49:54;;;;;;;2.87;1.03;;;;;;;;;;5033404;28;20190;-65
2022/07/08 10:52:32;;;;;;;2.10;1.10;;;;;;;;;;5044669;28;20194;-65
2022/07/08 10:55:13;;;;;;;2.33;1.20;;;;;;;;;;5003427;28;20206;-65
2022/07/08 10:57:58;;;;;;;2.30;0.83;;;;;;;;;;5024052;28;20234;-64
2022/07/08 11:00:35;;;;;;;1.90;0.90;;;;;;;;;;5018088;28;20187;-64
2022/07/08 11:03:05;;;;;;;4.37;1.10;;;;;;;;;;5030162;28;20198;-64
2022/07/08 11:05:45;;;;;;;2.30;1.00;;;;;;;;;;5014521;28;20191;-64
2022/07/08 11:08:25;;;;;;;1.17;0.80;;;;;;;;;;5030700;28;20208;-65
2022/07/08 11:10:58;;;;;;;2.50;1.20;;;;;;;;;;5039706;28;20221;-64
2022/07/08 11:13:33;;;;;;;2.70;1.40;;;;;;;;;;5043602;28;20194;-64
2022/07/08 11:16:06;;;;;;;1.63;0.97;;;;;;;;;;5013258;28;20206;-64
2022/07/08 11:18:37;;;;;;;1.97;1.00;;;;;;;;;;5039805;28;20221;-65
2022/07/08 11:21:05;;;;;;;1.50;1.00;;;;;;;;;;5019606;28;20194;-64
2022/07/08 11:23:36;;;;;;;2.37;1.00;;;;;;;;;;5034701;28;20220;-64
2022/07/08 11:26:12;;;;;;;1.43;1.00;;;;;;;;;;5044740;28;20500;-64
2022/07/08 11:28:42;;;;;;;1.97;1.00;;;;;;;;;;5027725;28;20754;-64
2022/07/08 11:31:26;;;;;;;2.07;1.00;;;;;;;;;;5041090;28;20202;-64
2022/07/08 11:34:02;;;;;;;1.90;0.90;;;;;;;;;;4996821;28;20302;-64
2022/07/08 11:36:35;;;;;;;2.37;1.20;;;;;;;;;;5043688;28;20199;-65
2022/07/08 11:39:05;;;;;;;2.13;1.10;;;;;;;;;;5043502;28;20734;-64
2022/07/08 11:41:52;;;;;;;2.10;1.00;;;;;;;;;;5041060;28;20191;-64
2022/07/08 11:44:24;;;;;;;1.60;1.00;;;;;;;;;;5013257;28;20198;-64
2022/07/08 11:46:54;;;;;;;2.00;1.17;;;;;;;;;;5024945;28;20450;-64
2022/07/08 11:49:24;;;;;;;2.40;1.30;;;;;;;;;;5019202;28;20214;-65
2022/07/08 11:51:59;;;;;;;3.10;1.17;;;;;;;;;;5039646;28;20234;-64
2022/07/08 11:54:31;;;;;;;2.03;1.00;;;;;;;;;;5024412;28;20209;-64
2022/07/08 11:57:04;;;;;;;2.43;0.90;;;;;;;;;;5029972;28;20206;-64
2022/07/08 11:59:37;;;;;;;4.40;1.27;;;;;;;;;;5005644;28;20242;-64
2022/07/08 12:02:07;;;;;;;2.00;1.10;;;;;;;;;;5031609;28;20240;-64
2022/07/08 12:04:44;;;;;;;2.63;1.23;;;;;;;;;;5012454;28;20278;-64
2022/07/08 12:07:31;;;;;;;2.40;1.10;;;;;;;;;;5013599;28;20535;-64
2022/07/08 12:10:05;;;;;;;2.53;0.87;;;;;;;;;;5001642;28;20762;-64
2022/07/08 12:12:36;;;;;;;1.77;0.83;;;;;;;;;;5018108;28;20856;-64
2022/07/08 12:15:16;;;;;;;1.33;0.93;;;;;;;;;;5008647;28;20497;-64
2022/07/08 12:18:00;;;;;;;1.07;0.77;;;;;;;;;;5027390;28;20186;-64
2022/07/08 12:20:41;;;;;;;1.40;0.93;;;;;;;;;;5027059;28;20183;-64
2022/07/08 12:23:15;;;;;;;2.03;0.90;;;;;;;;;;5020375;28;20652;-64
2022/07/08 12:25:48;;;;;;;2.67;1.00;;;;;;;;;;5027021;28;20191;-64
2022/07/08 12:28:24;;;;;;;2.37;1.10;;;;;;;;;;5029354;28;20641;-65
2022/07/08 12:30:55;;;;;;;3.07;1.23;;;;;;;;;;5027505;28;20691;-64
2022/07/08 12:33:28;;;;;;;2.87;1.23;;;;;;;;;;5028400;28;20270;-65
2022/07/08 12:36:03;;;;;;;2.27;1.33;;;;;;;;;;5029886;28;20318;-64
2022/07/08 12:38:32;;;;;;;2.87;1.10;;;;;;;;;;5021443;28;20238;-64
2022/07/08 12:41:18;;;;;;;2.90;1.20;;;;;;;;;;5042907;28;20194;-64
2022/07/08 12:43:59;;;;;;;1.80;1.00;;;;;;;;;;5022744;28;20221;-64
2022/07/08 12:46:29;;;;;;;3.33;1.30;;;;;;;;;;5014349;28;20284;-64
2022/07/08 12:49:00;;;;;;;2.10;1.13;;;;;;;;;;5048346;28;20214;-64
2022/07/08 12:51:30;;;;;;;2.50;1.20;;;;;;;;;;5036699;28;20184;-64
2022/07/08 12:54:01;;;;;;;2.63;1.00;;;;;;;;;;5039829;28;20218;-64
2022/07/08 12:56:30;;;;;;;3.00;1.20;;;;;;;;;;5038441;28;20488;-64
2022/07/08 12:59:01;;;;;;;2.50;1.60;;;;;;;;;;5034396;28;20235;-64
2022/07/08 13:01:30;;;;;;;2.53;1.20;;;;;;;;;;5040013;28;20226;-64
2022/07/08 13:03:59;;;;;;;4.07;1.47;;;;;;;;;;5023898;28;20237;-64
2022/07/08 13:06:27;;;;;;;2.93;1.30;;;;;;;;;;5042362;28;20645;-65
2022/07/08 13:08:58;;;;;;;4.93;1.23;;;;;;;;;;5049011;28;20198;-65
2022/07/08 13:11:26;;;;;;;1.73;1.00;;;;;;;;;;5029398;28;20218;-64
2022/07/08 13:13:59;;;;;;;3.37;1.50;;;;;;;;;;5040963;28;20192;-64
2022/07/08 13:16:33;;;;;;;4.43;1.50;;;;;;;;;;5035235;28;20213;-65
2022/07/08 13:19:04;;;;;;;2.27;1.10;;;;;;;;;;5016662;28;20226;-65
2022/07/08 13:21:33;;;;;;;2.07;1.10;;;;;;;;;;5031538;28;20202;-64
2022/07/08 13:24:05;;;;;;;3.47;1.43;;;;;;;;;;5007234;28;20273;-64
2022/07/08 13:26:47;;;;;;;2.20;1.30;;;;;;;;;;5033553;28;20183;-64
2022/07/08 13:29:19;;;;;;;2.23;1.30;;;;;;;;;;5046693;28;20500;-64
2022/07/08 13:31:52;;;;;;;4.47;1.20;;;;;;;;;;5025944;28;20265;-64
2022/07/08 13:34:26;;;;;;;2.10;1.30;;;;;;;;;;5025432;28;20198;-64
2022/07/08 13:37:00;;;;;;;1.90;1.20;;;;;;;;;;5038660;28;20203;-64
2022/07/08 13:39:32;;;;;;;3.10;1.30;;;;;;;;;;5052283;28;20301;-64
2022/07/08 13:42:15;;;;;;;2.37;1.50;;;;;;;;;;5043914;28;20210;-64
2022/07/08 13:44:54;;;;;;;2.23;1.20;;;;;;;;;;5030873;28;20230;-64
2022/07/08 13:47:28;;;;;;;2.93;1.53;;;;;;;;;;5024380;28;20210;-64
2022/07/08 13:50:04;;;;;;;1.70;1.00;;;;;;;;;;5035053;28;20296;-65
2022/07/08 13:52:34;;;;;;;2.40;1.10;;;;;;;;;;5019376;28;20217;-64
2022/07/08 13:55:06;;;;;;;2.73;1.20;;;;;;;;;;5036545;28;20619;-64
2022/07/08 13:57:34;;;;;;;1.83;1.20;;;;;;;;;;4992230;28;20576;-64
2022/07/08 14:00:05;;;;;;;3.93;1.30;;;;;;;;;;5034855;28;20301;-64
2022/07/08 14:02:38;;;;;;;1.33;0.97;;;;;;;;;;5044473;28;20198;-65
2022/07/08 14:05:10;;;;;;;3.33;1.07;;;;;;;;;;5009505;28;20207;-64
2022/07/08 14:07:42;;;;;;;2.20;1.17;;;;;;;;;;5036045;28;20619;-65
2022/07/08 14:10:09;;;;;;;3.53;1.27;;;;;;;;;;5012008;28;20298;-64
2022/07/08 14:12:43;;;;;;;3.20;1.40;;;;;;;;;;5030502;28;20195;-64
2022/07/08 14:15:14;;;;;;;2.67;1.37;;;;;;;;;;5032019;28;20269;-64
2022/07/08 14:17:45;;;;;;;3.80;1.63;;;;;;;;;;5029310;28;20671;-65
2022/07/08 14:20:16;;;;;;;2.33;1.43;;;;;;;;;;5012133;28;20238;-65
2022/07/08 14:22:44;;;;;;;2.27;1.23;;;;;;;;;;5025263;28;20210;-64
2022/07/08 14:25:17;;;;;;;2.77;1.33;;;;;;;;;;5011065;28;20698;-64
2022/07/08 14:27:48;;;;;;;2.40;1.27;;;;;;;;;;5014066;28;20192;-64
2022/07/08 14:30:30;;;;;;;1.60;1.20;;;;;;;;;;5014031;28;20254;-64
2022/07/08 14:33:02;;;;;;;2.20;1.23;;;;;;;;;;5033482;28;20218;-65
2022/07/08 14:35:35;;;;;;;3.80;1.50;;;;;;;;;;5019949;28;20218;-64
2022/07/08 14:38:05;;;;;;;2.47;1.47;;;;;;;;;;5018163;28;20273;-65
2022/07/08 14:40:37;;;;;;;3.73;1.53;;;;;;;;;;5043003;28;20245;-64
2022/07/08 14:43:10;;;;;;;3.37;1.50;;;;;;;;;;4999150;28;20201;-65
2022/07/08 14:45:41;;;;;;;3.30;1.40;;;;;;;;;;5024331;28;20549;-64
2022/07/08 14:48:15;;;;;;;2.60;1.40;;;;;;;;;;5031312;28;20198;-65
2022/07/08 14:50:44;;;;;;;1.70;1.20;;;;;;;;;;5027995;28;20520;-64
2022/07/08 14:53:16;;;;;;;2.47;1.33;;;;;;;;;;5025611;28;20215;-64
2022/07/08 14:55:48;;;;;;;2.20;1.17;;;;;;;;;;5047388;28;20194;-64
2022/07/08 14:58:17;;;;;;;2.37;1.50;;;;;;;;;;4999488;28;20224;-64
2022/07/08 15:00:47;;;;;;;1.73;1.20;;;;;;;;;;5029506;28;20277;-64
2022/07/08 15:03:19;;;;;;;2.87;1.30;;;;;;;;;;5034739;28;20199;-65
2022/07/08 15:05:55;;;;;;;2.53;1.33;;;;;;;;;;5033086;28;20253;-65
2022/07/08 15:08:29;;;;;;;2.27;1.50;;;;;;;;;;5029546;28;20579;-65
2022/07/08 15:11:08;;;;;;;2.00;1.30;;;;;;;;;;5008774;28;20210;-64
2022/07/08 15:13:37;;;;;;;2.87;1.40;;;;;;;;;;5040808;28;20229;-65
2022/07/08 15:16:10;;;;;;;3.03;1.50;;;;;;;;;;5030269;28;20209;-65
2022/07/08 15:18:42;;;;;;;2.30;1.30;;;;;;;;;;5029881;28;20530;-65
2022/07/08 15:21:12;;;;;;;2.00;1.27;;;;;;;;;;5039061;28;20195;-64